Racecast

Elizabeth Chang

Temperance Bedford (MI) · 12 · SECMI D1MONROE · Compare head to head

Athlete rating 117.1 2018 XC season
Best race 124.1 XC
Races 63
Seasons 5 2014 — 2018

RankedNation #32134·MI #3215·MI D1 #1857·SEC #185·Team #85 ?

Rating scale ?

Cross Country

2018 XC 108.8

Temperance Bedford (MI) · Grade 12

Date Meet Event Result Place Rating Difficulty PR/SR Flags
2018-10-27 Lake Erie Metro Park OFFICIAL 5000m 23:58.4 53rd · 9th on team 114.3 +0.055 CSR
2018-10-18 Hudson Mills Metropark - OFFICIAL 5000m 23:23.2 66th · 9th on team 114.7 +0.036 SR CSR RSR
2018-10-13 Munson Park 5000m 24:24.3 26th · 11th on team 111.6 +0.054 ★CR SR CSR RSR
2018-10-09 Indian Creek OFFICIAL 5000m 24:55 10th · 10th on team 110.2 +0.039 SR CSR RSR
2018-09-29 Lake Erie Metro Park OFFICIAL 5000m 25:50.2 90th · 11th on team 106.0 +0.055 SR CSR RSR
2018-09-25 Cass Benton Park OFFICIAL 5000m 27:02.5 38th · 9th on team 104.6 +0.091 ★CR CSR RSR
2018-09-06 Willow Metropark OFFICIAL 5000m 26:58.3 106th · 12th on team 100.2 +0.048 ★CR SR CSR RSR

2017 XC 112.4

Temperance Bedford (MI) · Grade 11

Date Meet Event Result Place Rating Difficulty PR/SR Flags
2017-10-28 Lake Erie Metro Park OFFICIAL 5000m 24:24.6 48th · 12th on team 111.9 +0.055
2017-10-19 Hudson Mills Metropark - OFFICIAL 5000m 24:04.8 66th · 8th on team 112.4 +0.036
2017-10-10 Indian Creek OFFICIAL 5000m 23:35 7th · 7th on team 114.7 +0.039 ★CR CSR
2017-10-07 Portage West MS 5000m 24:28.4 159th · 5th on team 111.4 +0.038 CSR
2017-09-30 Lake Erie Metro Park OFFICIAL 5000m 23:13.3 9th · 6th on team 117.0 +0.055 ★CR SR CSR RSR
2017-09-22 Ella Sharp Park OFFICIAL 5000m 24:59.9 76th · 10th on team 110.1 +0.038 ★CR CSR
2017-09-12 Hudson Mills Metropark - OFFICIAL 5000m 23:34.5 33rd · 5th on team 114.2 +0.036 CSR RSR
2017-09-09 Hedges Boyer Park 5000m 23:23.8 78th · 1st on team 107.1 -0.036 ★CR SR CSR RSR

2016 XC 110.7

Temperance Bedford (MI) · Grade 10

Date Meet Event Result Place Rating Difficulty PR/SR Flags
2016-10-29 Lake Erie Metro Park OFFICIAL 5000m 24:17.6 44th · 7th on team 113.0 +0.055 CR CSR
2016-10-20 Hudson Mills Metropark - OFFICIAL 5000m 23:11.8 42nd · 6th on team 115.6 +0.036
2016-10-15 Hudson Mills Metropark - OFFICIAL 5000m 22:43.5 16th · 4th on team 119.2 +0.036 ★PR ★CR SR CSR RSR
2016-10-08 Portage West MS 5000m 23:03 141st · 6th on team 117.0 +0.038 PR ★CR SR CSR RSR
2016-10-01 Pearson's Metro Park 5000m 23:40.9 21st · 6th on team 107.0 -0.022 ★CR SR CSR
2016-09-27 Pioneer HS 5000m 24:17.2 39th · 6th on team 115.2 +0.067 ★CR SR CSR
2016-09-17 Springfield Oaks County Park OFFICIAL 5000m 26:22 91st · 9th on team 108.0 +0.067 CSR
2016-09-13 Heritage Park (Adrian) OFFICIAL 5000m 24:25.9 72nd · 9th on team 115.5 +0.084 ★CR SR CSR RSR
2016-09-10 Hedges Boyer Park 5000m 24:29 127th · 2nd on team 102.9 -0.036 CR SR CSR
2016-08-27 Boy Scout Camp Lakota 5000m 25:33.9 88th · 10th on team 101.1 -0.003 ★CR SR CSR
2016-08-25 Heritage Park (Adrian) OFFICIAL 5000m 27:13.3 9th · 7th on team 103.6 +0.084 SR CSR RSR

2015 XC 107.3

Temperance Bedford (MI) · Grade 9

Date Meet Event Result Place Rating Difficulty PR/SR Flags
2015-10-31 Lake Erie Metro Park OFFICIAL 5000m 24:27.6 74th · 11th on team 111.2 +0.055 CR CSR
2015-10-22 Hudson Mills Metropark - OFFICIAL 5000m 23:56.2 72nd · 10th on team 111.9 +0.036
2015-10-17 Hudson Mills Metropark - OFFICIAL 5000m 23:26.7 92nd · 6th on team 114.0 +0.036 PR CR SR CSR RSR
2015-10-03 Pearson's Metro Park 5000m 24:10 17th · 17th on team 104.7 -0.022 PR CR SR CSR
2015-09-29 Indian Creek OFFICIAL 5000m 24:13.2 43rd · 5th on team 110.9 +0.039 PR CR SR CSR
2015-09-19 Springfield Oaks County Park OFFICIAL 5000m 24:36 15th · 4th on team 112.6 +0.067 PR ★CR SR CSR RSR
2015-09-10 Munson Park 5000m 27:36.1 111th · 13th on team 99.0 +0.054 CR CSR
2015-08-29 Boy Scout Camp Lakota 5000m 26:32.48 121st · 16th on team 96.5 -0.003 CR CSR
2015-08-27 Heritage Park (Adrian) OFFICIAL 5000m 26:11.1 66th · 14th on team 105.1 +0.084 PR CR SR CSR RSR

2014 XC 107.5

Temperance Bedford (MI) · Grade 8

Date Meet Event Result Place Rating Difficulty PR/SR Flags
2014-10-11 Munson Park 3200m 15:13.8 24th · 6th on team 124.1 +0.034 ★PR ★CR ★R SR CSR RSR
2014-10-04 Fostoria HS 3200m 15:51.3 79th · 6th on team 107.0 -0.073 PR ★CR SR CSR
2014-09-27 Pearson's Metro Park 3200m 16:25.6 90th · 5th on team 105.3 -0.067 PR ★CR SR CSR
2014-09-24 Hudson Mills Metropark - OFFICIAL 2735m 16:17.5 58th · 6th on team 96.2 ★PR ★CR SR CSR
2014-09-20 Sterling State Park 3218m 17:19.4 40th · 7th on team 113.0 +0.057 ★PR ★CR R SR CSR RSR
2014-09-06 Hedges Boyer Park 3200m 16:35.7 244th · 7th on team 99.6 -0.089 PR ★CR R SR CSR RSR

Track & Field

2017 TF 103.3

Temperance Bedford (MI) · Grade 10

Date Meet Event Result Place Rating Difficulty PR/SR Flags
2017-05-17 River Rat GIRLS JV Invite 800m 2:56.58 14th · 1st on team 104.4 -0.034 ★PR SR
2017-05-17 River Rat GIRLS JV Invite 1600m 6:30.47 24th · 4th on team 106.2 -0.034
2017-05-17 River Rat GIRLS JV Invite 3200m 15:53.94 11th · 5th on team 94.6 -0.034 ★PR SR
2017-04-25 SEC Red: Bedford @ Skyline 1600m 6:20.43 12th · 8th on team 108.1 -0.033 ★PR SR RSR

2015 TF 93.3

Temperance Bedford (MI) · Grade 8

Date Meet Event Result Place Rating Difficulty PR/SR Flags
2015-05-07 Bedford vs Saline vs Ypsilanti MS pv 5'6 -0.033
2015-05-07 Bedford vs Saline vs Ypsilanti MS 200m 34:22.24 5th · 5th on team -0.033
2015-04-16 Time Trials MS Girls 100m 18.24 37th · 37th on team -0.033 SR
2015-04-16 Time Trials MS Girls 200m 31.24 7th · 7th on team -0.033 ★PR SR
2015-04-16 Time Trials MS Girls 400m 1:28.14 17th · 17th on team -0.033 ★PR SR
2015-04-16 Time Trials MS Girls 800m 3:34 13th · 13th on team 93.3 -0.033 PR SR RSR

2014 TF 85.3

Temperance Bedford (MI) · Grade 7

Date Meet Event Result Place Rating Difficulty PR/SR Flags
2014-05-19 Bedford vs Dexter pv 5' -0.033
2014-05-19 Bedford vs Dexter 100m 17.84 11th · 11th on team -0.033
2014-05-08 Bedford vs Adrian pv 5' -0.033
2014-05-08 Bedford vs Adrian 100m 16.44 10th · 10th on team -0.033
2014-05-05 Bedford vs Ypsilanti 200m 36.34 8th · 8th on team -0.029 PR SR
2014-04-28 Bedford vs Monroe 70m 12.24 5th · 5th on team -0.033 ★PR SR
2014-04-16 Bedford TT 100m 14.24 10th · 10th on team -0.033 ★PR SR
2014-04-16 Bedford TT 400m 1:34.14 50th · 50th on team -0.033 PR SR
2014-04-16 Bedford TT 200m 40.24 57th · 57th on team -0.033 PR SR
2014-04-16 Bedford TT 1600m 9:03 58th · 58th on team 82.3 -0.033 PR R SR RSR
2014-04-16 Bedford TT 800m 3:46 44th · 44th on team 88.3 -0.033 PR R SR RSR
2014-04-14 Bedford vs Tecumseh 100m 17.64 10th · 10th on team -0.033 PR SR